Time;durP1;ratioP1;P1;durP2;ratioP2;P2;SDS_P1;SDS_P2;PMS_P1;PMS_P2;Temp;Humidity;BMP_temperature;BMP_pressure;BME280_temperature;BME280_humidity;BME280_pressure;Samples;Min_cycle;Max_cycle;Signal;HPM_P1;HPM_P2
2023/10/21 00:02:26;;;;;;;10.20;4.60;;;;;;;14.61;85.11;97338.86;104940;1269;61117;-21
2023/10/21 00:04:53;;;;;;;12.40;5.70;;;;;;;14.98;85.06;97345.13;104851;1267;61156;-21
2023/10/21 00:07:19;;;;;;;9.90;5.20;;;;;;;15.44;84.03;97346.13;104947;1266;72236;-21
2023/10/21 00:09:46;;;;;;;10.20;4.70;;;;;;;15.43;83.00;97344.23;104910;1266;74162;-21
2023/10/21 00:12:13;;;;;;;15.50;6.30;;;;;;;15.19;82.63;97343.02;102522;1267;3159116;-21
2023/10/21 00:14:40;;;;;;;11.40;5.60;;;;;;;14.91;83.28;97338.48;104869;1266;61247;-21
2023/10/21 00:17:07;;;;;;;14.50;6.10;;;;;;;14.60;83.57;97338.34;105101;1269;61205;-21
2023/10/21 00:19:34;;;;;;;8.50;4.20;;;;;;;14.35;84.76;97338.30;105063;1266;61139;-21
2023/10/21 00:22:01;;;;;;;9.10;4.20;;;;;;;14.74;85.44;97343.41;105014;1265;74865;-21
2023/10/21 00:24:28;;;;;;;9.50;4.60;;;;;;;15.22;83.66;97343.04;105047;1266;72567;-21
2023/10/21 00:26:55;;;;;;;13.70;5.30;;;;;;;15.21;83.01;97342.52;105075;1266;61052;-21
2023/10/21 00:29:22;;;;;;;9.40;5.70;;;;;;;15.01;83.17;97344.44;104877;1267;61180;-21
2023/10/21 00:31:49;;;;;;;10.30;5.20;;;;;;;14.71;84.02;97341.35;104808;1266;73103;-21
2023/10/21 00:34:17;;;;;;;8.80;4.20;;;;;;;14.46;84.92;97339.39;105052;1263;74902;-21
2023/10/21 00:36:44;;;;;;;10.40;5.30;;;;;;;14.79;85.29;97343.98;104833;1266;72543;-21
2023/10/21 00:39:10;;;;;;;16.70;5.70;;;;;;;15.23;83.94;97341.27;104959;1265;61111;-21
2023/10/21 00:41:39;;;;;;;7.70;4.80;;;;;;;15.22;82.75;97347.52;104865;1265;61191;-21
2023/10/21 00:44:05;;;;;;;12.40;6.00;;;;;;;15.01;83.00;97347.92;104770;1266;73019;-21
2023/10/21 00:46:32;;;;;;;8.40;4.70;;;;;;;14.69;83.48;97347.07;104947;1268;74826;-21
2023/10/21 00:48:59;;;;;;;9.60;5.80;;;;;;;14.37;84.02;97347.98;105082;1266;73009;-21
2023/10/21 00:51:27;;;;;;;10.90;3.50;;;;;;;14.08;84.97;97344.23;104863;1266;61740;-21
2023/10/21 00:53:54;;;;;;;9.00;4.90;;;;;;;14.39;85.88;97339.40;104806;1266;61201;-21
2023/10/21 00:56:21;;;;;;;12.60;5.60;;;;;;;14.66;84.85;97337.02;104780;1266;72953;-21
2023/10/21 00:58:49;;;;;;;7.70;4.80;;;;;;;14.70;83.42;97345.30;105084;1265;74329;-21
2023/10/21 01:01:16;;;;;;;12.40;5.30;;;;;;;14.46;83.56;97347.16;104811;1271;72540;-21
2023/10/21 01:03:43;;;;;;;13.90;5.20;;;;;;;14.19;83.87;97349.34;105062;1264;61088;-21
2023/10/21 01:06:10;;;;;;;10.70;6.00;;;;;;;13.96;85.07;97351.10;105146;1268;61205;-22
2023/10/21 01:08:41;;;;;;;7.60;4.20;;;;;;;13.79;85.82;97354.53;104886;1265;73065;-22
2023/10/21 01:11:09;;;;;;;7.20;3.60;;;;;;;14.24;85.52;97353.58;104857;1270;74453;-22
2023/10/21 01:13:36;;;;;;;9.10;4.90;;;;;;;14.65;84.01;97358.48;104808;1266;72721;-23
2023/10/21 01:16:03;;;;;;;6.80;4.80;;;;;;;14.64;83.94;97365.22;104787;1266;61151;-22
2023/10/21 01:18:33;;;;;;;9.20;5.60;;;;;;;14.44;84.04;97367.34;104870;1266;61128;-22
2023/10/21 01:21:02;;;;;;;9.10;5.90;;;;;;;14.16;84.77;97369.27;105024;1268;72882;-22
2023/10/21 01:23:30;;;;;;;9.50;6.20;;;;;;;13.87;85.43;97375.05;104720;1266;74023;-22
2023/10/21 01:25:57;;;;;;;8.40;4.10;;;;;;;13.66;86.59;97380.30;104695;1266;72701;-22
2023/10/21 01:28:23;;;;;;;8.90;4.90;;;;;;;14.07;86.33;97381.50;104666;1265;60973;-23
2023/10/21 01:30:50;;;;;;;8.70;5.70;;;;;;;14.52;84.86;97386.44;105065;1268;61507;-22
2023/10/21 01:33:17;;;;;;;12.20;7.20;;;;;;;14.53;84.41;97388.30;105048;1266;72823;-22
2023/10/21 01:35:45;;;;;;;10.40;5.70;;;;;;;14.31;84.27;97390.23;104838;1267;74724;-22
2023/10/21 01:38:12;;;;;;;10.80;6.10;;;;;;;14.02;85.76;97401.43;104820;1266;72500;-22
2023/10/21 01:40:39;;;;;;;6.20;4.00;;;;;;;13.77;86.65;97405.30;105089;1265;61880;-22
2023/10/21 01:43:06;;;;;;;13.20;4.80;;;;;;;14.12;86.57;97404.61;105114;1266;61222;-22
2023/10/21 01:45:37;;;;;;;7.10;5.10;;;;;;;14.53;84.55;97405.23;104819;1266;73006;-22
2023/10/21 01:48:05;;;;;;;12.30;5.80;;;;;;;14.47;84.19;97401.59;104843;1266;74213;-22
2023/10/21 01:50:32;;;;;;;10.20;5.90;;;;;;;14.22;84.36;97408.65;104854;1266;71666;-22
2023/10/21 01:52:59;;;;;;;9.50;5.80;;;;;;;13.96;84.68;97413.66;105087;1266;61247;-21
2023/10/21 01:55:25;;;;;;;11.70;6.40;;;;;;;13.70;85.01;97416.34;104852;1268;61179;-22
2023/10/21 01:57:52;;;;;;;6.70;4.30;;;;;;;13.52;86.45;97414.89;104696;1266;72938;-22
2023/10/21 02:00:20;;;;;;;7.10;4.00;;;;;;;13.89;87.22;97412.46;104852;1266;74371;-22
2023/10/21 02:02:52;;;;;;;9.30;4.90;;;;;;;14.40;86.01;97415.03;104886;1267;72430;-21
2023/10/21 02:05:20;;;;;;;9.80;4.60;;;;;;;14.50;85.29;97417.30;104817;1265;61094;-21
2023/10/21 02:07:47;;;;;;;6.40;3.70;;;;;;;14.37;84.55;97420.98;105136;1258;61155;-21
2023/10/21 02:10:14;;;;;;;6.40;4.00;;;;;;;14.14;84.08;97421.11;105413;1258;71894;-22
2023/10/21 02:12:41;;;;;;;6.30;4.30;;;;;;;13.86;84.11;97425.03;105486;1257;74324;-21
2023/10/21 02:15:11;;;;;;;4.20;2.60;;;;;;;13.67;85.15;97427.34;105460;1259;72662;-21
2023/10/21 02:17:39;;;;;;;7.10;3.70;;;;;;;14.09;85.36;97426.45;105332;1264;61180;-21
2023/10/21 02:20:07;;;;;;;7.10;4.30;;;;;;;14.57;84.21;97423.95;105378;1264;61105;-21
2023/10/21 02:22:34;;;;;;;8.60;4.70;;;;;;;14.59;82.54;97425.45;105206;1262;73140;-22
2023/10/21 02:25:02;;;;;;;11.30;5.50;;;;;;;14.36;82.14;97430.19;105351;1260;74909;-22
2023/10/21 02:27:40;;;;;;;11.60;7.80;;;;;;;14.00;83.00;97434.50;105039;1259;72622;-21
2023/10/21 02:30:14;;;;;;;10.40;7.40;;;;;;;13.53;86.68;97434.34;105461;1262;61183;-21
2023/10/21 02:32:46;;;;;;;15.50;4.70;;;;;;;13.20;88.73;97435.89;105374;1260;61201;-21
2023/10/21 02:35:14;;;;;;;16.40;5.70;;;;;;;13.61;88.30;97437.23;105287;1257;72136;-22
2023/10/21 02:37:42;;;;;;;16.00;7.20;;;;;;;14.02;85.24;97435.50;105353;1258;74181;-21
2023/10/21 02:40:10;;;;;;;22.30;7.80;;;;;;;13.92;85.28;97437.18;105374;1257;71749;-22
2023/10/21 02:42:37;;;;;;;17.10;9.30;;;;;;;13.82;85.36;97439.40;105315;1258;61058;-22
2023/10/21 02:45:05;;;;;;;14.30;7.90;;;;;;;13.61;85.71;97443.65;105185;1258;61144;-21
2023/10/21 02:47:34;;;;;;;12.00;6.30;;;;;;;13.41;86.26;97445.14;105202;1264;72994;-21
2023/10/21 02:50:00;;;;;;;12.70;5.70;;;;;;;13.76;86.34;97450.85;105345;1262;74350;-21
2023/10/21 02:52:27;;;;;;;12.90;6.70;;;;;;;14.19;84.57;97455.58;105374;1257;72499;-21
2023/10/21 02:54:54;;;;;;;19.00;8.10;;;;;;;14.18;83.81;97455.61;105258;1259;61139;-22
2023/10/21 02:57:22;;;;;;;14.80;8.30;;;;;;;14.00;83.82;97462.34;105166;1263;61187;-21
2023/10/21 02:59:48;;;;;;;15.40;9.20;;;;;;;13.70;85.16;97466.11;105307;1262;73074;-21
2023/10/21 03:02:15;;;;;;;15.10;8.50;;;;;;;13.40;86.69;97464.95;105468;1259;74156;-21
2023/10/21 03:04:42;;;;;;;15.40;8.00;;;;;;;13.39;87.96;97460.16;105483;1258;72652;-22
2023/10/21 03:07:10;;;;;;;17.20;8.80;;;;;;;13.88;85.67;97464.09;105500;1257;61050;-21
2023/10/21 03:09:37;;;;;;;13.90;8.60;;;;;;;13.83;85.21;97465.30;105455;1260;61191;-22
2023/10/21 03:12:04;;;;;;;24.60;9.50;;;;;;;13.68;85.97;97461.54;105241;1258;72768;-21
2023/10/21 03:14:31;;;;;;;20.30;10.60;;;;;;;13.40;86.72;97459.52;105465;1262;74335;-22
2023/10/21 03:16:59;;;;;;;13.30;6.40;;;;;;;13.09;88.68;97459.11;105383;1261;72715;-22
2023/10/21 03:19:27;;;;;;;12.50;6.80;;;;;;;13.55;88.26;97461.63;105183;1259;61044;-22
2023/10/21 03:21:56;;;;;;;12.40;7.40;;;;;;;14.05;85.88;97463.06;105158;1261;61753;-21
2023/10/21 03:24:23;;;;;;;15.90;7.90;;;;;;;14.10;84.41;97464.56;105368;1257;73555;-21
2023/10/21 03:26:51;;;;;;;14.60;9.10;;;;;;;13.87;84.01;97467.79;105503;1258;74945;-21
2023/10/21 03:29:18;;;;;;;18.10;11.60;;;;;;;13.47;85.89;97473.54;105315;1263;73209;-22
2023/10/21 03:31:45;;;;;;;21.00;12.80;;;;;;;13.18;87.91;97477.15;105423;1258;61142;-22
2023/10/21 03:34:12;;;;;;;22.50;10.70;;;;;;;12.84;90.36;97483.14;105137;1261;61131;-21
2023/10/21 03:36:39;;;;;;;21.00;11.30;;;;;;;13.12;90.12;97479.00;105495;1257;73077;-22
2023/10/21 03:39:07;;;;;;;21.50;11.10;;;;;;;13.54;88.18;97483.11;105466;1257;73537;-22
2023/10/21 03:41:34;;;;;;;16.50;9.70;;;;;;;13.75;86.86;97483.39;105296;1258;72688;-21
2023/10/21 03:44:02;;;;;;;17.80;10.50;;;;;;;13.63;86.02;97482.74;105322;1259;61104;-22
2023/10/21 03:46:29;;;;;;;23.00;10.50;;;;;;;13.40;86.19;97479.50;105357;1259;61219;-21
2023/10/21 03:48:56;;;;;;;11.50;7.70;;;;;;;13.19;86.80;97480.67;105476;1258;73109;-22
2023/10/21 03:51:24;;;;;;;12.10;8.30;;;;;;;13.61;86.81;97487.78;105346;1258;72825;-21
2023/10/21 03:53:50;;;;;;;14.80;9.30;;;;;;;14.09;85.06;97487.30;105276;1259;73174;-21
2023/10/21 03:56:17;;;;;;;15.40;9.60;;;;;;;14.09;84.07;97491.84;105182;1257;61109;-21
2023/10/21 03:58:44;;;;;;;18.50;10.90;;;;;;;13.91;84.09;97488.61;105021;1260;61418;-21
2023/10/21 04:01:11;;;;;;;23.50;12.60;;;;;;;13.65;84.12;97487.38;105470;1258;71881;-22
2023/10/21 04:03:38;;;;;;;25.70;16.70;;;;;;;13.34;84.72;97485.83;105261;1257;74159;-21
2023/10/21 04:06:08;;;;;;;14.50;7.70;;;;;;;13.12;86.24;97487.73;105191;1259;73120;-21
2023/10/21 04:08:35;;;;;;;12.60;7.40;;;;;;;13.46;86.61;97490.40;105299;1257;60989;-22
2023/10/21 04:11:02;;;;;;;35.30;15.50;;;;;;;13.97;84.79;97481.30;105329;1262;61999;-22
2023/10/21 04:13:29;;;;;;;45.40;19.80;;;;;;;13.94;84.00;97487.19;105492;1258;73902;-22
2023/10/21 04:15:56;;;;;;;41.90;19.40;;;;;;;13.75;84.42;97497.45;105076;1257;74383;-22
2023/10/21 04:18:23;;;;;;;42.70;18.10;;;;;;;13.48;85.31;97500.17;105465;1257;72547;-22
2023/10/21 04:20:51;;;;;;;28.80;15.20;;;;;;;13.24;86.29;97503.39;105256;1259;61835;-21
2023/10/21 04:23:18;;;;;;;27.90;12.50;;;;;;;13.56;86.19;97503.37;105141;1261;61182;-22
2023/10/21 04:25:44;;;;;;;23.10;10.40;;;;;;;13.95;84.09;97505.80;105144;1258;73730;-22
2023/10/21 04:28:11;;;;;;;21.30;10.20;;;;;;;13.84;83.94;97510.39;105226;1259;74864;-22
2023/10/21 04:30:38;;;;;;;18.70;10.90;;;;;;;13.42;85.63;97505.06;105460;1258;73190;-22
2023/10/21 04:33:05;;;;;;;17.30;11.30;;;;;;;13.03;87.59;97509.83;105050;1257;61147;-22
2023/10/21 04:35:32;;;;;;;10.30;6.50;;;;;;;12.77;89.11;97509.49;105151;1258;61186;-22
2023/10/21 04:37:59;;;;;;;13.40;6.10;;;;;;;13.24;88.53;97502.60;105125;1258;72789;-22
2023/10/21 04:40:26;;;;;;;10.10;6.60;;;;;;;13.67;85.87;97510.52;105235;1258;74246;-22
2023/10/21 04:42:53;;;;;;;14.00;6.70;;;;;;;13.67;84.79;97516.11;105171;1259;72613;-22
2023/10/21 04:45:20;;;;;;;14.70;7.60;;;;;;;13.48;85.15;97519.77;105371;1258;61081;-22
2023/10/21 04:47:48;;;;;;;10.80;7.30;;;;;;;13.24;85.38;97523.09;105505;1259;61194;-22
2023/10/21 04:50:15;;;;;;;11.00;5.10;;;;;;;13.05;85.93;97532.98;105503;1259;73733;-22
2023/10/21 04:52:43;;;;;;;8.80;4.20;;;;;;;13.41;86.09;97538.56;105394;1260;74342;-22
2023/10/21 04:55:10;;;;;;;9.40;5.30;;;;;;;13.85;84.28;97545.66;105094;1262;72362;-23
2023/10/21 04:57:37;;;;;;;11.60;5.70;;;;;;;13.76;83.84;97551.38;104964;1259;61122;-22
2023/10/21 05:00:08;;;;;;;14.10;8.50;;;;;;;13.51;85.17;97557.65;105238;1264;61700;-22
2023/10/21 05:02:34;;;;;;;13.20;8.10;;;;;;;13.28;85.68;97564.27;105235;1264;72890;-22
2023/10/21 05:05:01;;;;;;;9.00;5.00;;;;;;;13.07;86.60;97572.97;105468;1260;74354;-22
2023/10/21 05:07:28;;;;;;;6.20;4.20;;;;;;;13.38;86.98;97564.19;105319;1257;72473;-22
2023/10/21 05:09:55;;;;;;;10.50;4.80;;;;;;;13.89;85.10;97569.81;105079;1257;61628;-22
2023/10/21 05:12:22;;;;;;;7.60;5.10;;;;;;;13.91;83.95;97574.46;105185;1257;61230;-22
2023/10/21 05:14:50;;;;;;;9.30;5.20;;;;;;;13.66;84.01;97579.43;105341;1259;73840;-22
2023/10/21 05:17:17;;;;;;;9.20;5.50;;;;;;;13.44;84.91;97587.01;105305;1259;73199;-22
2023/10/21 05:19:44;;;;;;;10.50;4.00;;;;;;;13.23;85.39;97583.32;105117;1259;72631;-23
2023/10/21 05:22:12;;;;;;;8.80;4.50;;;;;;;13.63;85.51;97583.15;105202;1259;61115;-22
2023/10/21 05:24:39;;;;;;;10.30;5.50;;;;;;;14.08;84.07;97588.44;105133;1264;61145;-22
2023/10/21 05:27:09;;;;;;;12.90;5.70;;;;;;;14.15;83.64;97593.06;105129;1257;73595;-22
2023/10/21 05:29:36;;;;;;;11.30;6.40;;;;;;;14.05;83.93;97589.02;105395;1262;72920;-22
2023/10/21 05:32:03;;;;;;;13.40;6.90;;;;;;;13.89;83.60;97588.74;105364;1259;72492;-22
2023/10/21 05:34:30;;;;;;;10.10;4.60;;;;;;;13.75;84.63;97593.38;105284;1259;61986;-22
2023/10/21 05:36:58;;;;;;;7.70;4.80;;;;;;;14.17;84.90;97595.63;105504;1261;61129;-22
2023/10/21 05:39:24;;;;;;;11.40;5.50;;;;;;;14.73;83.31;97598.42;105439;1257;73816;-22
2023/10/21 05:41:51;;;;;;;13.00;6.20;;;;;;;14.83;82.11;97601.73;105421;1259;74422;-22
2023/10/21 05:44:18;;;;;;;11.50;6.90;;;;;;;14.71;81.82;97601.23;105103;1259;73299;-22
2023/10/21 05:46:56;;;;;;;11.80;7.20;;;;;;;14.50;81.84;97603.92;105222;1258;61058;-22
2023/10/21 05:49:23;;;;;;;14.70;8.00;;;;;;;13.91;83.80;97618.58;105395;1262;61222;-22
2023/10/21 05:51:50;;;;;;;12.60;6.70;;;;;;;13.27;87.32;97627.29;105466;1259;72587;-22
2023/10/21 05:54:17;;;;;;;144.20;59.80;;;;;;;13.70;87.92;97627.46;105368;1258;74373;-22
2023/10/21 05:56:44;;;;;;;160.60;70.20;;;;;;;14.20;84.78;97622.36;105350;1258;72643;-22
2023/10/21 05:59:10;;;;;;;183.10;80.20;;;;;;;14.27;84.10;97624.59;105224;1260;61151;-22
2023/10/21 06:01:37;;;;;;;194.80;89.40;;;;;;;14.18;83.66;97629.55;105413;1262;61104;-22
2023/10/21 06:04:05;;;;;;;197.90;87.40;;;;;;;13.99;84.18;97622.35;105332;1259;74246;-22
2023/10/21 06:06:32;;;;;;;76.60;34.60;;;;;;;13.89;85.03;97618.94;105110;1264;74310;-22
2023/10/21 06:08:59;;;;;;;62.90;26.90;;;;;;;14.35;84.88;97624.61;105096;1259;73193;-22
2023/10/21 06:11:27;;;;;;;49.00;22.70;;;;;;;14.93;83.18;97626.21;105379;1258;61083;-22
2023/10/21 06:13:54;;;;;;;31.00;16.80;;;;;;;15.01;81.62;97630.39;105453;1259;61205;-23
2023/10/21 06:16:21;;;;;;;32.30;15.20;;;;;;;14.94;81.98;97632.55;105514;1257;73840;-23
2023/10/21 06:18:48;;;;;;;27.20;12.90;;;;;;;14.78;82.33;97633.12;105294;1261;74411;-22
2023/10/21 06:21:15;;;;;;;32.40;12.50;;;;;;;14.62;82.94;97631.09;105201;1257;72637;-22
2023/10/21 06:23:42;;;;;;;12.70;7.00;;;;;;;14.50;83.35;97630.20;105265;1259;61698;-22
2023/10/21 06:26:11;;;;;;;14.40;6.90;;;;;;;14.97;83.33;97634.62;105493;1261;61172;-23
2023/10/21 06:28:38;;;;;;;16.80;8.10;;;;;;;15.49;81.47;97633.86;105275;1264;73534;-22
2023/10/21 06:31:05;;;;;;;17.50;9.90;;;;;;;15.35;80.35;97639.41;105389;1258;74208;-23
2023/10/21 06:33:33;;;;;;;21.30;12.30;;;;;;;15.25;80.63;97646.59;105436;1259;72543;-22
2023/10/21 06:36:00;;;;;;;22.10;11.90;;;;;;;14.99;81.39;97645.38;105158;1265;61251;-23
2023/10/21 06:38:27;;;;;;;23.60;10.60;;;;;;;14.88;81.81;97640.31;105267;1265;61118;-22
2023/10/21 06:40:56;;;;;;;16.50;6.30;;;;;;;14.83;82.45;97640.84;105366;1259;73889;-22
2023/10/21 06:43:40;;;;;;;9.90;6.00;;;;;;;15.50;83.26;97641.62;105207;1260;74918;-22
2023/10/21 06:46:07;;;;;;;10.10;5.90;;;;;;;16.07;81.50;97645.92;105194;1265;73156;-23
2023/10/21 06:48:36;;;;;;;13.30;7.10;;;;;;;16.18;80.22;97653.02;105319;1261;61111;-23
2023/10/21 06:51:04;;;;;;;11.80;7.40;;;;;;;16.14;79.89;97665.31;105347;1262;61153;-22
2023/10/21 06:53:31;;;;;;;14.40;7.30;;;;;;;16.00;79.92;97670.39;105292;1257;74448;-23
2023/10/21 06:55:58;;;;;;;15.60;7.60;;;;;;;15.89;80.23;97673.50;105297;1260;74214;-23
2023/10/21 06:58:27;;;;;;;11.00;5.20;;;;;;;15.82;81.12;97689.77;105385;1261;72572;-23
2023/10/21 07:00:55;;;;;;;11.90;6.40;;;;;;;16.36;80.89;97693.39;105267;1258;61145;-22
2023/10/21 07:03:22;;;;;;;14.90;8.90;;;;;;;16.94;78.86;97696.48;105234;1262;61199;-23
2023/10/21 07:05:49;;;;;;;20.40;10.30;;;;;;;17.08;77.76;97699.52;105492;1259;73797;-23
2023/10/21 07:08:16;;;;;;;19.10;10.30;;;;;;;16.97;77.63;97700.48;105470;1262;73759;-23
2023/10/21 07:10:43;;;;;;;22.30;11.10;;;;;;;16.84;77.94;97701.45;105386;1259;72573;-23
2023/10/21 07:13:10;;;;;;;26.40;14.00;;;;;;;16.73;78.50;97705.05;105184;1261;61145;-22
2023/10/21 07:15:40;;;;;;;21.80;9.60;;;;;;;16.67;78.25;97703.84;105269;1257;61174;-23
2023/10/21 07:18:07;;;;;;;24.70;12.70;;;;;;;17.16;78.19;97706.55;105528;1260;72906;-23
2023/10/21 07:20:36;;;;;;;22.20;12.30;;;;;;;17.76;76.31;97710.29;105194;1259;73252;-23
2023/10/21 07:23:03;;;;;;;32.00;14.30;;;;;;;17.95;75.62;97710.94;105158;1259;73171;-23
2023/10/21 07:25:30;;;;;;;29.60;14.20;;;;;;;17.98;75.35;97715.09;105314;1259;61157;-23
2023/10/21 07:27:57;;;;;;;30.90;13.90;;;;;;;17.92;75.21;97724.29;105474;1257;61110;-23
2023/10/21 07:30:26;;;;;;;20.10;10.90;;;;;;;17.82;75.17;97733.69;105480;1260;73862;-23
2023/10/21 07:32:54;;;;;;;19.90;10.50;;;;;;;17.70;75.18;97737.91;105468;1262;74436;-22
2023/10/21 07:35:21;;;;;;;12.90;6.40;;;;;;;17.62;75.99;97740.91;105608;1258;72726;-23
2023/10/21 07:37:48;;;;;;;13.70;6.40;;;;;;;18.12;75.99;97740.10;105747;1253;61150;-23
2023/10/21 07:40:15;;;;;;;10.50;5.90;;;;;;;18.72;74.34;97743.05;105748;1258;61139;-23
2023/10/21 07:42:41;;;;;;;12.90;5.80;;;;;;;18.89;73.45;97755.14;105776;1253;73656;-23
2023/10/21 07:45:11;;;;;;;13.60;6.60;;;;;;;18.86;73.48;97759.73;105802;1253;73326;-23
2023/10/21 07:47:38;;;;;;;15.40;5.60;;;;;;;18.72;72.10;97757.29;105623;1253;70385;-25
2023/10/21 07:50:07;;;;;;;14.20;6.10;;;;;;;18.56;72.79;97755.93;105706;1253;61141;-23
2023/10/21 07:52:37;;;;;;;11.70;6.70;;;;;;;18.46;73.84;97755.88;105652;1253;61033;-22
2023/10/21 07:55:04;;;;;;;14.70;6.70;;;;;;;18.39;74.40;97754.13;105628;1253;73871;-22
2023/10/21 07:57:32;;;;;;;10.60;5.20;;;;;;;18.40;74.75;97751.77;105765;1258;74364;-22
2023/10/21 08:00:00;;;;;;;9.40;4.80;;;;;;;18.98;74.63;97747.88;105433;1256;72528;-22
2023/10/21 08:02:31;;;;;;;11.30;5.50;;;;;;;19.63;71.90;97748.46;105582;1253;62882;-23
2023/10/21 08:04:59;;;;;;;14.00;6.50;;;;;;;19.76;70.60;97757.43;105451;1262;61123;-22
2023/10/21 08:07:25;;;;;;;14.70;6.40;;;;;;;19.63;71.09;97758.23;105662;1253;73699;-22
2023/10/21 08:09:52;;;;;;;13.10;6.00;;;;;;;19.49;70.27;97760.80;105666;1253;74417;-22
2023/10/21 08:12:19;;;;;;;16.00;6.70;;;;;;;19.30;70.33;97764.84;105507;1258;72657;-22
2023/10/21 08:14:46;;;;;;;14.00;7.00;;;;;;;19.15;71.31;97770.08;105514;1256;61137;-23
2023/10/21 08:17:13;;;;;;;13.70;7.10;;;;;;;19.05;72.27;97775.08;105558;1258;61057;-22
2023/10/21 08:19:40;;;;;;;15.60;8.00;;;;;;;18.99;72.57;97779.95;105634;1257;73684;-22
2023/10/21 08:22:07;;;;;;;17.20;6.50;;;;;;;18.71;74.05;97785.67;105625;1258;74327;-22
2023/10/21 08:24:34;;;;;;;14.00;6.10;;;;;;;19.29;74.10;97788.68;105615;1253;72600;-23
2023/10/21 08:27:02;;;;;;;12.40;6.40;;;;;;;20.15;70.26;97792.83;105693;1259;61277;-22
2023/10/21 08:29:30;;;;;;;12.50;6.80;;;;;;;20.48;68.32;97792.83;105509;1258;61087;-23
2023/10/21 08:31:57;;;;;;;15.70;7.00;;;;;;;20.51;67.89;97789.27;105668;1254;74213;-22
2023/10/21 08:34:24;;;;;;;16.30;6.40;;;;;;;20.53;68.49;97794.04;105810;1253;74396;-22
2023/10/21 08:36:51;;;;;;;9.30;6.00;;;;;;;20.52;67.44;97803.20;105727;1253;73220;-22
2023/10/21 08:39:20;;;;;;;12.90;6.50;;;;;;;20.49;68.03;97800.75;105769;1253;61137;-22
2023/10/21 08:41:48;;;;;;;14.90;6.70;;;;;;;20.36;67.86;97797.98;105472;1258;61162;-22
2023/10/21 08:44:15;;;;;;;16.10;8.50;;;;;;;20.33;69.11;97807.73;105439;1260;74483;-22
2023/10/21 08:46:41;;;;;;;16.50;7.60;;;;;;;20.27;68.14;97811.39;105609;1253;74202;-22
2023/10/21 08:49:09;;;;;;;17.10;7.40;;;;;;;20.35;68.97;97819.26;105319;1255;74043;-22
2023/10/21 08:51:36;;;;;;;11.20;6.10;;;;;;;20.51;69.40;97813.54;105268;1254;61151;-22
2023/10/21 08:54:03;;;;;;;17.00;6.30;;;;;;;20.67;68.89;97813.95;105463;1260;61101;-22
2023/10/21 08:56:32;;;;;;;14.20;5.90;;;;;;;20.80;67.67;97815.02;105738;1253;73836;-23
2023/10/21 08:59:00;;;;;;;15.70;6.60;;;;;;;20.35;66.12;97822.80;105671;1256;74227;-22
2023/10/21 09:01:27;;;;;;;17.40;6.40;;;;;;;20.46;66.68;97825.92;105755;1257;72475;-22
2023/10/21 09:03:54;;;;;;;16.20;6.40;;;;;;;20.70;66.15;97826.89;105697;1253;61102;-22
2023/10/21 09:06:21;;;;;;;11.90;5.20;;;;;;;20.98;65.34;97824.23;105489;1258;61114;-22
2023/10/21 09:08:49;;;;;;;12.10;5.50;;;;;;;21.28;65.09;97823.55;105719;1254;73797;-23
2023/10/21 09:11:18;;;;;;;13.50;5.90;;;;;;;21.45;63.92;97824.00;105415;1253;74213;-22
2023/10/21 09:13:45;;;;;;;13.40;5.90;;;;;;;21.68;62.03;97825.73;105579;1254;72989;-22
2023/10/21 09:16:21;;;;;;;15.00;5.70;;;;;;;21.98;62.82;97828.59;105554;1254;61067;-23
2023/10/21 09:19:05;;;;;;;14.30;5.30;;;;;;;22.38;62.92;97835.29;105589;1258;61216;-22
2023/10/21 09:21:37;;;;;;;19.80;5.60;;;;;;;22.67;59.80;97838.09;105638;1261;73884;-23
2023/10/21 09:24:13;;;;;;;13.80;5.50;;;;;;;22.89;59.97;97837.24;105609;1253;74001;-22
2023/10/21 09:26:41;;;;;;;12.00;4.90;;;;;;;23.10;58.96;97834.73;105575;1256;73125;-22
2023/10/21 09:29:12;;;;;;;11.80;4.90;;;;;;;23.34;58.38;97835.33;105636;1253;61159;-23
2023/10/21 09:31:51;;;;;;;15.00;4.70;;;;;;;23.51;57.94;97833.11;105605;1261;61252;-22
2023/10/21 09:34:26;;;;;;;13.20;4.80;;;;;;;23.54;56.32;97831.09;105828;1256;71293;-22
2023/10/21 09:37:05;;;;;;;15.10;4.40;;;;;;;23.48;57.29;97836.60;105694;1253;72972;-22
2023/10/21 09:39:33;;;;;;;14.30;4.50;;;;;;;23.48;58.14;97836.04;105669;1253;72603;-21
2023/10/21 09:42:01;;;;;;;14.90;4.30;;;;;;;23.52;57.79;97830.11;105639;1262;61186;-22
2023/10/21 09:44:29;;;;;;;12.60;4.40;;;;;;;23.49;57.80;97826.91;105624;1259;61183;-22
2023/10/21 09:46:57;;;;;;;15.70;4.30;;;;;;;23.44;57.59;97827.63;105466;1253;73557;-22
2023/10/21 09:49:25;;;;;;;12.70;4.40;;;;;;;23.33;57.59;97827.42;105412;1261;74039;-22
2023/10/21 09:52:10;;;;;;;17.00;4.00;;;;;;;23.31;58.61;97827.30;105663;1253;72686;-22
2023/10/21 09:55:04;;;;;;;11.10;4.10;;;;;;;23.41;57.34;97830.43;105628;1253;61232;-22
2023/10/21 09:57:32;;;;;;;18.60;4.50;;;;;;;23.44;56.06;97824.92;105510;1258;61255;-22
2023/10/21 09:59:59;;;;;;;12.90;3.90;;;;;;;23.39;55.66;97833.27;105542;1254;74384;-22
2023/10/21 10:02:26;;;;;;;14.30;4.40;;;;;;;23.33;55.75;97839.90;105500;1253;74740;-22
2023/10/21 10:04:53;;;;;;;11.70;3.80;;;;;;;23.32;54.64;97836.27;105641;1253;72572;-22
2023/10/21 10:07:20;;;;;;;22.40;4.00;;;;;;;23.25;54.08;97833.39;105614;1253;61042;-22
2023/10/21 10:10:10;;;;;;;14.30;4.50;;;;;;;23.20;55.78;97835.13;105408;1258;61149;-22
2023/10/21 10:12:40;;;;;;;11.80;3.60;;;;;;;23.24;55.61;97840.48;105587;1253;73822;-22
2023/10/21 10:15:44;;;;;;;12.40;4.40;;;;;;;23.23;56.49;97844.34;105510;1258;72886;-22
2023/10/21 10:18:23;;;;;;;14.40;4.80;;;;;;;23.00;55.22;97849.88;105763;1253;71417;-21
2023/10/21 10:20:52;;;;;;;16.00;5.00;;;;;;;22.88;56.85;97848.17;105667;1253;61255;-22
2023/10/21 10:23:20;;;;;;;14.40;5.50;;;;;;;22.66;57.34;97851.32;105595;1253;61170;-21
2023/10/21 10:25:54;;;;;;;15.40;5.10;;;;;;;22.38;58.45;97849.63;105579;1253;73798;-22
2023/10/21 10:28:22;;;;;;;18.20;5.30;;;;;;;22.34;59.10;97850.13;105334;1253;74478;-22
2023/10/21 10:30:53;;;;;;;15.60;5.30;;;;;;;22.12;59.76;97846.73;105241;1260;71370;-21
2023/10/21 10:33:31;;;;;;;23.10;6.40;;;;;;;21.83;60.51;97858.23;105448;1255;61077;-22
2023/10/21 10:35:58;;;;;;;17.30;5.70;;;;;;;21.78;60.55;97860.91;105532;1258;61244;-22
2023/10/21 10:38:27;;;;;;;13.20;5.40;;;;;;;21.94;60.61;97862.11;105653;1260;73984;-22
2023/10/21 10:41:12;;;;;;;14.00;5.50;;;;;;;22.04;59.85;97864.94;105596;1258;74378;-21
2023/10/21 10:43:41;;;;;;;19.30;6.40;;;;;;;22.31;59.96;97865.34;105654;1261;72332;-22
2023/10/21 10:46:08;;;;;;;16.30;6.00;;;;;;;22.52;59.77;97864.76;105361;1262;61185;-22
2023/10/21 10:48:35;;;;;;;15.50;5.60;;;;;;;22.82;59.98;97873.63;105610;1254;61163;-22
2023/10/21 10:51:12;;;;;;;12.30;4.70;;;;;;;23.14;59.56;97876.13;105650;1258;73793;-21
2023/10/21 10:53:39;;;;;;;12.80;4.70;;;;;;;23.54;57.97;97873.34;105557;1262;74904;-22
2023/10/21 10:56:14;;;;;;;10.90;4.50;;;;;;;23.60;57.13;97876.94;105540;1258;72458;-22
2023/10/21 10:58:45;;;;;;;15.60;5.50;;;;;;;23.52;57.48;97882.01;105787;1254;61062;-21
2023/10/21 11:01:19;;;;;;;12.90;5.10;;;;;;;23.17;58.61;97890.41;105814;1258;61105;-21
2023/10/21 11:03:53;;;;;;;20.80;5.50;;;;;;;22.88;59.10;97897.85;105464;1258;72419;-22
2023/10/21 11:06:20;;;;;;;10.80;5.10;;;;;;;22.83;59.73;97895.66;105201;1261;74290;-22
2023/10/21 11:08:48;;;;;;;17.10;5.10;;;;;;;23.03;59.00;97891.88;105690;1259;72535;-21
2023/10/21 11:11:15;;;;;;;10.80;4.70;;;;;;;23.27;58.14;97894.45;105635;1254;61242;-22
2023/10/21 11:13:43;;;;;;;12.40;4.30;;;;;;;23.43;58.38;97894.63;105767;1257;61099;-21
2023/10/21 11:16:11;;;;;;;12.40;4.40;;;;;;;23.49;58.16;97892.69;105706;1258;73857;-21
2023/10/21 11:18:38;;;;;;;12.40;4.30;;;;;;;23.49;58.24;97891.51;105676;1254;74275;-21
2023/10/21 11:21:05;;;;;;;17.40;4.30;;;;;;;23.49;56.57;97891.79;105853;1253;72705;-22
2023/10/21 11:23:32;;;;;;;10.70;4.40;;;;;;;23.35;57.70;97896.52;105910;1255;61158;-21